PWSweather.com
Personal Weather Stations
Station Observations
NYERIN
South Erin, Erin, NY 14838-9545

South ErinErin, NY 14838-9545

Lat: 42.150605, Lon: -76.654038

Elevation: 1663

Station Type: Davis VP Pro II

http://southerin-ny.org/wx.php

Latest ConditionsUpdated 6:02:03 AM EDT Saturday, Aug 30, 2014
Currently Today's Max Today's Min Today's Average
Temperature 54.5°F12.5°C 55.6°F13.1°C 54.5°F12.5°C 55.1°F12.8°C
Dew Point 53.9°F12.2°C 54.8°F12.7°C 53.8°F12.1°C 54.3°F12.4°C
Winds 2.7 mph S4.3 kmh S 4.5 mph SSE7.2 kmh SSE - 2.0 mph 3.2 kmh
Wind Gusts 7.0 mph11.3 kmh 8.0 mph12.9 kmh - -
Humidity 98% 99% 95% 97%
Pressure 30.16 in1021.3 mb 30.18 in1022.0 mb 30.15 in1021.0 mb -
Hour Temp Dew Point Humidity Winds Wind Gusts Pressure Precip Precip Rate Daily Precip Total
06:02 AM 54.5°F12.5°C 53.9°F12.2°C 98% 2.7 mph S4.3 kmh S 7.0 mph11.3 kmh 30.16 in1021.3 mb 0.00 in0.0 mm 0.00 in/hr0.0 mm/hr 0.00 in0.0 mm
05:52 AM 54.6°F12.6°C 53.8°F12.1°C 97% 1.2 mph S1.9 kmh S 3.0 mph4.8 kmh 30.16 in1021.3 mb 0.00 in0.0 mm 0.00 in/hr0.0 mm/hr 0.00 in0.0 mm
05:42 AM 54.7°F12.6°C 53.9°F12.2°C 97% 2.3 mph S3.7 kmh S 4.0 mph6.4 kmh 30.16 in1021.3 mb 0.00 in0.0 mm 0.00 in/hr0.0 mm/hr 0.00 in0.0 mm
05:32 AM 54.8°F12.7°C 54.0°F12.2°C 97% 2.4 mph S3.9 kmh S 4.0 mph6.4 kmh 30.16 in1021.3 mb 0.00 in0.0 mm 0.00 in/hr0.0 mm/hr 0.00 in0.0 mm
05:22 AM 55.0°F12.8°C 53.9°F12.2°C 96% 3.8 mph S6.1 kmh S 5.0 mph8.0 kmh 30.15 in1021.0 mb 0.00 in0.0 mm 0.00 in/hr0.0 mm/hr 0.00 in0.0 mm
05:12 AM 55.1°F12.8°C 54.0°F12.2°C 96% 4.5 mph SSE7.2 kmh SSE 7.0 mph11.3 kmh 30.15 in1021.0 mb 0.00 in0.0 mm 0.00 in/hr0.0 mm/hr 0.00 in0.0 mm
05:02 AM 55.3°F12.9°C 53.9°F12.2°C 95% 3.8 mph SSE6.1 kmh SSE 6.0 mph9.7 kmh 30.16 in1021.3 mb 0.00 in0.0 mm 0.00 in/hr0.0 mm/hr 0.00 in0.0 mm
04:52 AM 55.4°F13.0°C 54.0°F12.2°C 95% 3.8 mph S6.1 kmh S 5.0 mph8.0 kmh 30.16 in1021.3 mb 0.00 in0.0 mm 0.00 in/hr0.0 mm/hr 0.00 in0.0 mm
04:42 AM 55.6°F13.1°C 54.2°F12.3°C 95% 4.0 mph S6.4 kmh S 6.0 mph9.7 kmh 30.16 in1021.3 mb 0.00 in0.0 mm 0.00 in/hr0.0 mm/hr 0.00 in0.0 mm
04:32 AM 55.6°F13.1°C 54.2°F12.3°C 95% 2.9 mph S4.7 kmh S 6.0 mph9.7 kmh 30.16 in1021.3 mb 0.00 in0.0 mm 0.00 in/hr0.0 mm/hr 0.00 in0.0 mm
04:22 AM 55.4°F13.0°C 54.0°F12.2°C 95% 2.6 mph S4.2 kmh S 7.0 mph11.3 kmh 30.16 in1021.3 mb 0.00 in0.0 mm 0.00 in/hr0.0 mm/hr 0.00 in0.0 mm
04:12 AM 55.4°F13.0°C 54.0°F12.2°C 95% 2.4 mph SSE3.9 kmh SSE 7.0 mph11.3 kmh 30.16 in1021.3 mb 0.00 in0.0 mm 0.00 in/hr0.0 mm/hr 0.00 in0.0 mm
04:02 AM 55.6°F13.1°C 54.5°F12.5°C 96% 2.8 mph S4.5 kmh S 8.0 mph12.9 kmh 30.16 in1021.3 mb 0.00 in0.0 mm 0.00 in/hr0.0 mm/hr 0.00 in0.0 mm
03:52 AM 55.6°F13.1°C 54.5°F12.5°C 96% 2.9 mph S4.7 kmh S 6.0 mph9.7 kmh 30.16 in1021.3 mb 0.00 in0.0 mm 0.00 in/hr0.0 mm/hr 0.00 in0.0 mm
03:42 AM 55.4°F13.0°C 54.6°F12.6°C 97% 3.4 mph S5.5 kmh S 5.0 mph8.0 kmh 30.17 in1021.7 mb 0.00 in0.0 mm 0.00 in/hr0.0 mm/hr 0.00 in0.0 mm
03:32 AM 55.3°F12.9°C 54.7°F12.6°C 98% 3.2 mph S5.1 kmh S 6.0 mph9.7 kmh 30.17 in1021.7 mb 0.00 in0.0 mm 0.00 in/hr0.0 mm/hr 0.00 in0.0 mm
03:22 AM 55.1°F12.8°C 54.5°F12.5°C 98% 1.9 mph S3.1 kmh S 5.0 mph8.0 kmh 30.17 in1021.7 mb 0.00 in0.0 mm 0.00 in/hr0.0 mm/hr 0.00 in0.0 mm
03:12 AM 55.1°F12.8°C 54.5°F12.5°C 98% 1.4 mph SSE2.3 kmh SSE 4.0 mph6.4 kmh 30.17 in1021.7 mb 0.00 in0.0 mm 0.00 in/hr0.0 mm/hr 0.00 in0.0 mm
03:02 AM 55.1°F12.8°C 54.5°F12.5°C 98% 2.4 mph S3.9 kmh S 5.0 mph8.0 kmh 30.17 in1021.7 mb 0.00 in0.0 mm 0.00 in/hr0.0 mm/hr 0.00 in0.0 mm
02:52 AM 55.0°F12.8°C 54.7°F12.6°C 99% 3.5 mph S5.6 kmh S 4.0 mph6.4 kmh 30.17 in1021.7 mb 0.00 in0.0 mm 0.00 in/hr0.0 mm/hr 0.00 in0.0 mm
02:42 AM 55.0°F12.8°C 54.7°F12.6°C 99% 3.0 mph S4.8 kmh S 7.0 mph11.3 kmh 30.17 in1021.7 mb 0.00 in0.0 mm 0.00 in/hr0.0 mm/hr 0.00 in0.0 mm
02:32 AM 54.8°F12.7°C 54.5°F12.5°C 99% 2.2 mph SSE3.5 kmh SSE 3.0 mph4.8 kmh 30.16 in1021.3 mb 0.00 in0.0 mm 0.00 in/hr0.0 mm/hr 0.00 in0.0 mm
02:22 AM 54.7°F12.6°C 54.4°F12.4°C 99% 3.1 mph SSW5.0 kmh SSW 5.0 mph8.0 kmh 30.17 in1021.7 mb 0.00 in0.0 mm 0.00 in/hr0.0 mm/hr 0.00 in0.0 mm
02:12 AM 54.7°F12.6°C 54.1°F12.3°C 98% 2.0 mph S3.2 kmh S 4.0 mph6.4 kmh 30.17 in1021.7 mb 0.00 in0.0 mm 0.00 in/hr0.0 mm/hr 0.00 in0.0 mm
02:02 AM 54.7°F12.6°C 54.1°F12.3°C 98% 2.1 mph S3.4 kmh S 4.0 mph6.4 kmh 30.17 in1021.7 mb 0.00 in0.0 mm 0.00 in/hr0.0 mm/hr 0.00 in0.0 mm
01:52 AM 54.7°F12.6°C 54.1°F12.3°C 98% 1.3 mph S2.1 kmh S 4.0 mph6.4 kmh 30.17 in1021.7 mb 0.00 in0.0 mm 0.00 in/hr0.0 mm/hr 0.00 in0.0 mm
01:42 AM 54.7°F12.6°C 53.9°F12.2°C 97% 0.2 mph S0.3 kmh S 2.0 mph3.2 kmh 30.17 in1021.7 mb 0.00 in0.0 mm 0.00 in/hr0.0 mm/hr 0.00 in0.0 mm
01:32 AM 55.0°F12.8°C 54.2°F12.3°C 97% 0.9 mph S1.4 kmh S 2.0 mph3.2 kmh 30.17 in1021.7 mb 0.00 in0.0 mm 0.00 in/hr0.0 mm/hr 0.00 in0.0 mm
01:22 AM 55.1°F12.8°C 54.3°F12.4°C 97% 0.4 mph S0.6 kmh S 1.0 mph1.6 kmh 30.17 in1021.7 mb 0.00 in0.0 mm 0.00 in/hr0.0 mm/hr 0.00 in0.0 mm
01:12 AM 55.3°F12.9°C 54.5°F12.5°C 97% Calm Calm -- 30.18 in1022.0 mb 0.00 in0.0 mm 0.00 in/hr0.0 mm/hr 0.00 in0.0 mm
01:02 AM 55.3°F12.9°C 54.5°F12.5°C 97% Calm Calm 2.0 mph3.2 kmh 30.17 in1021.7 mb 0.00 in0.0 mm 0.00 in/hr0.0 mm/hr 0.00 in0.0 mm
12:52 AM 55.3°F12.9°C 54.5°F12.5°C 97% 0.4 mph S0.6 kmh S 2.0 mph3.2 kmh 30.17 in1021.7 mb 0.00 in0.0 mm 0.00 in/hr0.0 mm/hr 0.00 in0.0 mm
12:42 AM 55.3°F12.9°C 54.5°F12.5°C 97% 0.8 mph S1.3 kmh S 3.0 mph4.8 kmh 30.17 in1021.7 mb 0.00 in0.0 mm 0.00 in/hr0.0 mm/hr 0.00 in0.0 mm
12:32 AM 55.4°F13.0°C 54.6°F12.6°C 97% 0.4 mph S0.6 kmh S 2.0 mph3.2 kmh 30.17 in1021.7 mb 0.00 in0.0 mm 0.00 in/hr0.0 mm/hr 0.00 in0.0 mm
12:22 AM 55.4°F13.0°C 54.6°F12.6°C 97% 0.1 mph S0.2 kmh S 1.0 mph1.6 kmh 30.17 in1021.7 mb 0.00 in0.0 mm 0.00 in/hr0.0 mm/hr 0.00 in0.0 mm
12:12 AM 55.6°F13.1°C 54.8°F12.7°C 97% 0.1 mph S0.2 kmh S -- 30.17 in1021.7 mb 0.00 in0.0 mm 0.00 in/hr0.0 mm/hr 0.00 in0.0 mm
12:02 AM 55.6°F13.1°C 54.8°F12.7°C 97% 0.1 mph S0.2 kmh S -- 30.17 in1021.7 mb 0.00 in0.0 mm 0.00 in/hr0.0 mm/hr 0.00 in0.0 mm